Aydlett, North Carolina
Current Conditions -  °F | °C
As of 3:15 PM on Friday 31 Oct 2014 (Local Time) from KONX Reporting Station
Haze Haze  
Wind Chill: 60°   Ceiling: 2700
Heat Index: 60°   Visibility: 2.5mi
Dew Point: 48°   Wind: 10mph
Humidity: 65%   Direction: 360°N
Pressure: 29.81"   Gusts: 17mph
Location:  36.33°N, 75.91°W
Report Text: KONX 311915Z AUTO 36009G15KT 2 1/2SM HZ OVC027 15/09 A2981 RMK AO2 T01540088
Loading
Personal Weather Stations






























Interactive Weather Map
Tropical Storm Tracking
New forecast layout! Learn more

10-Day Weather Forecast

Advertisements
Track Severe Weather on mobile